Time;durP1;ratioP1;P1;durP2;ratioP2;P2;SDS_P1;SDS_P2;PMS_P1;PMS_P2;Temp;Humidity;BMP_temperature;BMP_pressure;BME280_temperature;BME280_humidity;BME280_pressure;Samples;Min_cycle;Max_cycle;Signal;HPM_P1;HPM_P2
2021/09/17 00:01:37;;;;;;;20.17;13.40;;;;;;;18.01;75.03;98090.13;5065267;28;20055;-70
2021/09/17 00:04:02;;;;;;;19.33;11.75;;;;;;;18.01;74.87;98095.66;5064898;28;20046;-69
2021/09/17 00:06:28;;;;;;;17.35;11.73;;;;;;;17.92;75.21;98093.03;5065450;28;20028;-70
2021/09/17 00:08:53;;;;;;;16.15;11.60;;;;;;;17.85;76.56;98098.38;5064760;28;20059;-70
2021/09/17 00:11:19;;;;;;;13.77;9.50;;;;;;;17.71;76.03;98096.00;5063888;28;20063;-69
2021/09/17 00:13:44;;;;;;;16.98;12.07;;;;;;;17.56;76.26;98090.03;5064434;28;20048;-70
2021/09/17 00:16:10;;;;;;;17.08;11.98;;;;;;;17.47;76.22;98088.59;5065476;28;20079;-69
2021/09/17 00:18:35;;;;;;;16.95;12.07;;;;;;;17.37;76.49;98089.84;5066009;28;20055;-69
2021/09/17 00:21:00;;;;;;;19.65;13.10;;;;;;;17.29;76.91;98085.28;5066171;28;20114;-69
2021/09/17 00:23:26;;;;;;;17.08;12.07;;;;;;;17.19;76.62;98086.56;5065228;28;20048;-69
2021/09/17 00:25:51;;;;;;;15.02;10.85;;;;;;;17.12;76.36;98084.38;5065299;28;20033;-69
2021/09/17 00:28:17;;;;;;;17.95;11.05;;;;;;;16.93;76.77;98090.50;5066144;28;20033;-69
2021/09/17 00:30:42;;;;;;;16.00;11.40;;;;;;;16.81;77.15;98088.56;5063856;28;20028;-69
2021/09/17 00:33:08;;;;;;;14.93;10.73;;;;;;;16.65;76.88;98092.00;5064996;28;20029;-69
2021/09/17 00:35:33;;;;;;;11.88;9.70;;;;;;;16.54;76.84;98092.81;5058620;28;20025;-69
2021/09/17 00:38:01;;;;;;;12.52;9.52;;;;;;;16.45;77.06;98102.03;5052949;28;20036;-69
2021/09/17 00:40:26;;;;;;;15.05;9.85;;;;;;;16.35;77.19;98088.63;5052241;28;20063;-68
2021/09/17 00:42:53;;;;;;;11.50;8.90;;;;;;;16.29;77.40;98095.56;5051740;28;20473;-69
2021/09/17 00:45:18;;;;;;;10.07;8.25;;;;;;;16.24;77.47;98091.03;5052367;28;20032;-69
2021/09/17 00:47:43;;;;;;;11.23;8.82;;;;;;;16.14;77.85;98091.47;5052168;28;20028;-69
2021/09/17 00:50:12;;;;;;;12.75;8.60;;;;;;;16.07;78.31;98084.56;5052130;28;20051;-69
2021/09/17 00:52:38;;;;;;;11.10;8.20;;;;;;;15.96;77.79;98079.78;5051469;28;20025;-69
2021/09/17 00:55:04;;;;;;;9.43;7.60;;;;;;;15.87;78.03;98079.88;5051929;28;20035;-69
2021/09/17 00:57:31;;;;;;;10.32;8.23;;;;;;;15.77;77.60;98079.13;5051531;28;20037;-69
2021/09/17 00:59:57;;;;;;;9.68;8.30;;;;;;;15.72;78.54;98086.84;5050779;28;20056;-68
2021/09/17 01:02:22;;;;;;;11.18;7.40;;;;;;;15.70;77.93;98083.59;5050080;28;20117;-69
2021/09/17 01:04:49;;;;;;;9.23;7.65;;;;;;;15.65;78.57;98081.88;5049924;28;20029;-69
2021/09/17 01:07:14;;;;;;;11.07;8.38;;;;;;;15.62;78.25;98077.00;5053374;28;20052;-68
2021/09/17 01:09:39;;;;;;;8.45;7.32;;;;;;;15.62;78.40;98080.56;5051120;28;20452;-68
2021/09/17 01:12:07;;;;;;;9.63;7.13;;;;;;;15.56;79.18;98073.63;5050410;28;20028;-68
2021/09/17 01:14:35;;;;;;;9.98;8.02;;;;;;;15.53;78.59;98073.50;5049270;28;20523;-68
2021/09/17 01:17:01;;;;;;;9.30;6.97;;;;;;;15.49;78.77;98070.59;5052491;28;20032;-68
2021/09/17 01:19:26;;;;;;;8.48;7.20;;;;;;;15.43;79.29;98072.78;5053216;28;20052;-68
2021/09/17 01:22:00;;;;;;;9.02;6.60;;;;;;;15.37;79.23;98068.59;5052759;28;20056;-68
2021/09/17 01:24:27;;;;;;;8.05;6.30;;;;;;;15.34;79.29;98069.25;5052411;28;20501;-68
2021/09/17 01:26:52;;;;;;;8.32;6.05;;;;;;;15.29;79.74;98069.47;5053150;28;20029;-69
2021/09/17 01:29:18;;;;;;;6.60;5.65;;;;;;;15.26;79.87;98065.44;5052389;28;20028;-68
2021/09/17 01:31:43;;;;;;;6.15;4.80;;;;;;;15.26;79.56;98067.41;5052332;28;20119;-69
2021/09/17 01:34:09;;;;;;;7.80;5.90;;;;;;;15.20;79.59;98063.22;5052558;28;20551;-68
2021/09/17 01:36:35;;;;;;;7.45;6.38;;;;;;;15.19;79.58;98062.41;5053479;28;20063;-68
2021/09/17 01:39:00;;;;;;;6.85;6.15;;;;;;;15.13;79.64;98064.56;5052582;28;20076;-69
2021/09/17 01:41:26;;;;;;;9.23;6.35;;;;;;;15.06;79.84;98056.00;5052430;28;20041;-69
2021/09/17 01:43:51;;;;;;;6.68;5.22;;;;;;;15.03;79.84;98063.03;5052541;28;20028;-69
2021/09/17 01:46:16;;;;;;;6.90;5.88;;;;;;;15.03;80.26;98051.97;5052396;28;20037;-68
2021/09/17 01:48:42;;;;;;;6.72;5.93;;;;;;;15.07;80.69;98045.78;5052239;28;20094;-68
2021/09/17 01:51:07;;;;;;;8.05;6.15;;;;;;;15.02;80.51;98055.88;5052941;28;20039;-68
2021/09/17 01:53:34;;;;;;;5.75;5.15;;;;;;;15.03;80.40;98056.66;5050614;28;20039;-69
2021/09/17 01:55:59;;;;;;;8.05;6.38;;;;;;;15.01;80.29;98048.75;5052849;28;20028;-69
2021/09/17 01:58:25;;;;;;;6.50;5.90;;;;;;;15.00;80.49;98038.84;5050750;28;20075;-69
2021/09/17 02:00:51;;;;;;;6.10;5.50;;;;;;;15.00;80.29;98047.13;5051670;28;20385;-69
2021/09/17 02:03:16;;;;;;;5.80;5.28;;;;;;;14.99;80.65;98039.16;5051475;28;20610;-68
2021/09/17 02:05:41;;;;;;;7.75;5.40;;;;;;;14.96;80.16;98031.53;5051784;28;20031;-68
2021/09/17 02:08:07;;;;;;;6.88;5.10;;;;;;;14.95;80.00;98033.50;5052033;28;20040;-68
2021/09/17 02:10:32;;;;;;;5.53;5.00;;;;;;;14.90;80.08;98030.94;5051946;28;20107;-68
2021/09/17 02:12:58;;;;;;;5.97;5.38;;;;;;;14.84;80.13;98029.50;5051606;28;20578;-68
2021/09/17 02:15:23;;;;;;;5.10;4.57;;;;;;;14.83;80.21;98036.19;5051634;28;20470;-68
2021/09/17 02:17:48;;;;;;;6.88;4.85;;;;;;;14.81;80.18;98031.00;5051475;28;20021;-68
2021/09/17 02:20:14;;;;;;;6.47;4.57;;;;;;;14.80;79.78;98023.03;5051484;28;20040;-68
2021/09/17 02:22:39;;;;;;;6.03;4.63;;;;;;;14.74;79.60;98030.72;5051088;28;20055;-69
2021/09/17 02:25:05;;;;;;;6.03;4.80;;;;;;;14.66;79.78;98031.56;5051725;28;20126;-68
2021/09/17 02:27:31;;;;;;;4.55;4.05;;;;;;;14.62;80.37;98027.84;5050544;28;20370;-69
2021/09/17 02:29:57;;;;;;;4.60;4.18;;;;;;;14.55;79.98;98028.38;5051118;28;20025;-69
2021/09/17 02:32:22;;;;;;;5.80;5.20;;;;;;;14.51;80.02;98021.91;5050502;28;20268;-67
2021/09/17 02:34:49;;;;;;;5.63;4.50;;;;;;;14.47;80.29;98023.69;5051610;28;20033;-69
2021/09/17 02:37:15;;;;;;;6.13;4.65;;;;;;;14.45;80.99;98021.28;5051361;28;20025;-68
2021/09/17 02:39:41;;;;;;;6.65;5.00;;;;;;;14.43;80.15;98029.09;5051656;28;20396;-68
2021/09/17 02:42:08;;;;;;;6.72;5.55;;;;;;;14.41;80.31;98023.09;5051343;28;20634;-68
2021/09/17 02:44:34;;;;;;;6.95;4.97;;;;;;;14.40;80.43;98016.75;5050930;28;20082;-68
2021/09/17 02:46:59;;;;;;;5.30;4.47;;;;;;;14.43;80.34;98012.53;5051313;28;20021;-67
2021/09/17 02:49:24;;;;;;;5.50;4.93;;;;;;;14.47;80.38;98016.22;5050809;28;20024;-68
2021/09/17 02:51:50;;;;;;;5.30;4.80;;;;;;;14.52;80.63;98024.31;5051481;28;20029;-68
2021/09/17 02:54:15;;;;;;;5.55;4.80;;;;;;;14.51;80.27;98028.22;5051039;28;20032;-67
2021/09/17 02:56:41;;;;;;;5.32;4.80;;;;;;;14.51;80.36;98019.94;5051230;28;20028;-68
2021/09/17 02:59:06;;;;;;;5.40;4.90;;;;;;;14.53;80.20;98023.16;5050845;28;20440;-68
2021/09/17 03:01:31;;;;;;;6.10;5.22;;;;;;;14.55;80.29;98026.41;5045094;28;20112;-68
2021/09/17 03:03:57;;;;;;;9.13;5.07;;;;;;;14.56;80.55;98024.47;5049113;28;20091;-68
2021/09/17 03:06:22;;;;;;;4.10;3.70;;;;;;;14.57;80.10;98020.56;5050375;28;20029;-68
2021/09/17 03:08:49;;;;;;;5.15;4.15;;;;;;;14.57;80.36;98026.88;5051491;28;20090;-68
2021/09/17 03:11:14;;;;;;;5.00;4.50;;;;;;;14.58;80.65;98016.66;5051191;28;20033;-68
2021/09/17 03:13:40;;;;;;;5.10;3.97;;;;;;;14.55;80.25;98026.41;5050120;28;20040;-68
2021/09/17 03:16:06;;;;;;;5.95;5.20;;;;;;;14.56;81.25;98019.75;5051117;28;20033;-67
2021/09/17 03:18:33;;;;;;;5.07;4.55;;;;;;;14.52;80.70;98016.03;5050330;28;20025;-68
2021/09/17 03:20:58;;;;;;;5.72;4.40;;;;;;;14.52;80.47;98023.53;5050388;28;20096;-68
2021/09/17 03:23:23;;;;;;;4.90;4.38;;;;;;;14.50;80.25;98026.59;5050286;28;20132;-68
2021/09/17 03:25:49;;;;;;;4.65;4.07;;;;;;;14.50;80.60;98018.31;5050859;28;20104;-68
2021/09/17 03:28:14;;;;;;;5.88;4.75;;;;;;;14.47;80.81;98013.47;5050740;28;20028;-68
2021/09/17 03:30:40;;;;;;;7.28;4.38;;;;;;;14.45;80.80;98015.78;5050381;28;20029;-68
2021/09/17 03:33:05;;;;;;;4.45;3.90;;;;;;;14.46;81.02;98011.06;5050349;28;20469;-68
2021/09/17 03:35:31;;;;;;;5.65;4.45;;;;;;;14.43;80.47;98015.28;5050540;28;20063;-69
2021/09/17 03:37:56;;;;;;;5.28;4.30;;;;;;;14.42;80.64;98016.44;5050864;28;20040;-68
2021/09/17 03:40:22;;;;;;;5.70;4.13;;;;;;;14.43;80.65;98021.59;5050730;28;20028;-68
2021/09/17 03:42:47;;;;;;;5.25;4.15;;;;;;;14.43;80.49;98020.81;5049126;28;20040;-68
2021/09/17 03:45:12;;;;;;;4.60;4.05;;;;;;;14.42;80.39;98016.44;5050971;28;20041;-68
2021/09/17 03:47:38;;;;;;;4.40;3.70;;;;;;;14.40;80.20;98024.25;5050560;28;20033;-68
2021/09/17 03:50:05;;;;;;;4.80;4.30;;;;;;;14.38;81.00;98016.28;5050855;28;20373;-68
2021/09/17 03:52:31;;;;;;;4.30;3.45;;;;;;;14.37;80.22;98016.63;5050161;28;20044;-68
2021/09/17 03:54:56;;;;;;;4.63;3.63;;;;;;;14.35;80.18;98013.38;5050701;28;20025;-69
2021/09/17 03:57:21;;;;;;;5.43;3.80;;;;;;;14.33;80.57;98013.69;5050117;28;20108;-69
2021/09/17 03:59:47;;;;;;;4.65;3.70;;;;;;;14.27;80.17;98021.38;5050222;28;20385;-68
2021/09/17 04:02:12;;;;;;;4.63;4.05;;;;;;;14.22;80.26;98013.28;5049654;28;20083;-68
2021/09/17 04:04:39;;;;;;;4.93;4.43;;;;;;;14.25;80.31;98018.13;5050407;28;20028;-68
2021/09/17 04:07:06;;;;;;;5.28;4.68;;;;;;;14.24;80.64;98024.00;5050015;28;20029;-68
2021/09/17 04:09:31;;;;;;;5.93;4.15;;;;;;;14.20;80.77;98026.59;5050155;28;20025;-68
2021/09/17 04:11:56;;;;;;;8.88;4.90;;;;;;;14.21;80.67;98036.47;5050883;28;20071;-68
2021/09/17 04:14:22;;;;;;;6.50;4.50;;;;;;;14.20;80.55;98034.06;5053810;28;20040;-68
2021/09/17 04:16:47;;;;;;;5.95;4.50;;;;;;;14.20;80.91;98037.63;5053108;28;20504;-69
2021/09/17 04:19:12;;;;;;;5.68;4.47;;;;;;;14.24;80.38;98033.06;5053985;28;20082;-69
2021/09/17 04:21:38;;;;;;;4.10;3.70;;;;;;;14.25;80.61;98028.38;5053661;28;20029;-68
2021/09/17 04:24:03;;;;;;;5.93;4.57;;;;;;;14.23;80.55;98044.44;5052948;28;20071;-69
2021/09/17 04:26:29;;;;;;;6.43;4.85;;;;;;;14.22;80.69;98035.34;5053741;28;20033;-69
2021/09/17 04:28:54;;;;;;;6.28;5.43;;;;;;;14.22;80.52;98037.31;5053619;28;20045;-68
2021/09/17 04:31:19;;;;;;;6.50;4.72;;;;;;;14.22;80.63;98040.06;5053149;28;20025;-70
2021/09/17 04:33:45;;;;;;;5.32;4.60;;;;;;;14.23;80.76;98036.97;5053224;28;20048;-68
2021/09/17 04:36:10;;;;;;;4.65;3.83;;;;;;;14.24;80.13;98040.53;5054008;28;20059;-69
2021/09/17 04:38:35;;;;;;;5.95;4.63;;;;;;;14.21;80.50;98038.44;5053563;28;20076;-69
2021/09/17 04:41:01;;;;;;;5.20;4.32;;;;;;;14.18;80.34;98039.09;5053643;28;20116;-69
2021/09/17 04:43:29;;;;;;;6.03;4.20;;;;;;;14.12;80.30;98047.53;5053149;28;20112;-70
2021/09/17 04:45:55;;;;;;;6.18;4.40;;;;;;;14.09;80.45;98048.19;5053390;28;20037;-69
2021/09/17 04:48:20;;;;;;;6.47;3.92;;;;;;;14.11;80.41;98045.94;5053475;28;20086;-69
2021/09/17 04:50:46;;;;;;;4.72;3.83;;;;;;;14.11;80.56;98056.13;5052927;28;20017;-68
2021/09/17 04:53:11;;;;;;;5.10;4.00;;;;;;;14.10;80.65;98051.75;5053003;28;20040;-69
2021/09/17 04:55:38;;;;;;;4.57;3.80;;;;;;;14.11;80.66;98058.91;5053503;28;20036;-69
2021/09/17 04:58:06;;;;;;;4.18;3.45;;;;;;;14.10;80.60;98065.53;5053633;28;20048;-69
2021/09/17 05:00:32;;;;;;;4.63;3.35;;;;;;;14.11;80.66;98061.66;5052886;28;20500;-69
2021/09/17 05:02:57;;;;;;;3.75;3.30;;;;;;;14.12;80.60;98074.31;5052585;28;20033;-70
2021/09/17 05:05:24;;;;;;;4.03;3.30;;;;;;;14.12;80.11;98074.31;5052530;28;20041;-70
2021/09/17 05:07:49;;;;;;;4.97;3.92;;;;;;;14.08;80.44;98076.91;5053118;28;20111;-69
2021/09/17 05:10:14;;;;;;;3.38;3.08;;;;;;;14.06;80.20;98079.19;5052910;28;20115;-70
2021/09/17 05:12:40;;;;;;;3.58;3.10;;;;;;;14.05;80.60;98074.81;5052541;28;20033;-69
2021/09/17 05:15:06;;;;;;;4.68;3.38;;;;;;;14.07;80.15;98083.56;5053685;28;20031;-70
2021/09/17 05:17:32;;;;;;;5.32;3.60;;;;;;;14.10;80.41;98080.16;5051485;28;20061;-69
2021/09/17 05:19:57;;;;;;;3.10;2.60;;;;;;;14.08;80.05;98084.38;5052854;28;20081;-69
2021/09/17 05:22:25;;;;;;;5.35;2.88;;;;;;;14.07;80.07;98080.00;5052275;28;20461;-70
2021/09/17 05:24:50;;;;;;;2.92;2.33;;;;;;;14.07;80.37;98078.06;5052685;28;20045;-70
2021/09/17 05:27:16;;;;;;;3.63;2.83;;;;;;;14.07;79.47;98082.75;5053282;28;20515;-69
2021/09/17 05:29:41;;;;;;;3.50;2.78;;;;;;;14.03;79.81;98079.84;5053407;28;20180;-70
2021/09/17 05:32:07;;;;;;;3.90;2.75;;;;;;;14.03;79.91;98084.56;5052105;28;20469;-70
2021/09/17 05:34:33;;;;;;;4.70;2.95;;;;;;;14.04;79.90;98089.75;5052566;28;20040;-70
2021/09/17 05:36:58;;;;;;;2.90;2.55;;;;;;;14.06;79.80;98086.66;5053215;28;20457;-70
2021/09/17 05:39:24;;;;;;;3.90;2.85;;;;;;;14.06;79.71;98083.91;5052458;28;20029;-70
2021/09/17 05:41:50;;;;;;;3.10;2.80;;;;;;;14.11;79.83;98092.81;5052060;28;20131;-69
2021/09/17 05:44:15;;;;;;;5.53;3.58;;;;;;;14.16;79.81;98074.47;5053068;28;20037;-70
2021/09/17 05:46:40;;;;;;;3.63;2.88;;;;;;;14.15;79.76;98084.69;5051978;28;20397;-70
2021/09/17 05:49:06;;;;;;;4.68;3.92;;;;;;;14.11;79.80;98080.94;5052277;28;20064;-69
2021/09/17 05:51:31;;;;;;;4.07;2.50;;;;;;;14.11;80.12;98078.19;5052314;28;20029;-70
2021/09/17 05:53:56;;;;;;;3.35;2.10;;;;;;;14.11;79.76;98076.25;5051768;28;20025;-70
2021/09/17 05:56:22;;;;;;;3.38;2.55;;;;;;;14.06;80.16;98087.47;5052086;28;20151;-70
2021/09/17 05:58:47;;;;;;;2.55;2.25;;;;;;;14.04;79.80;98081.47;5052283;28;20086;-70
2021/09/17 06:01:13;;;;;;;2.42;2.20;;;;;;;14.03;79.56;98090.09;5052049;28;20067;-70
2021/09/17 06:03:41;;;;;;;2.92;2.10;;;;;;;14.05;79.90;98087.81;5051459;28;20052;-70
2021/09/17 06:06:06;;;;;;;3.08;2.70;;;;;;;14.09;79.72;98080.47;5052263;28;20033;-70
2021/09/17 06:08:32;;;;;;;2.22;1.83;;;;;;;14.12;79.89;98086.16;5051589;28;20476;-69
2021/09/17 06:10:57;;;;;;;2.97;2.22;;;;;;;14.14;79.71;98086.63;5051934;28;20025;-69
2021/09/17 06:13:22;;;;;;;1.85;1.75;;;;;;;14.12;79.44;98085.34;5051415;28;20059;-70
2021/09/17 06:15:48;;;;;;;2.38;1.95;;;;;;;14.08;79.10;98085.19;5052129;28;20499;-70
2021/09/17 06:18:13;;;;;;;2.60;1.80;;;;;;;14.03;79.00;98088.13;5051880;28;20523;-70
2021/09/17 06:20:39;;;;;;;1.80;1.55;;;;;;;14.01;78.91;98087.63;5051623;28;20059;-69
2021/09/17 06:23:04;;;;;;;2.00;1.30;;;;;;;13.98;79.27;98091.88;5051135;28;20029;-70
2021/09/17 06:25:29;;;;;;;1.65;1.55;;;;;;;13.97;79.24;98083.91;5052102;28;20098;-70
2021/09/17 06:27:55;;;;;;;1.30;1.17;;;;;;;13.94;79.10;98085.38;5051444;28;20715;-70
2021/09/17 06:30:20;;;;;;;1.55;1.42;;;;;;;13.90;78.93;98084.44;5051458;28;20413;-70
2021/09/17 06:32:46;;;;;;;2.30;2.05;;;;;;;13.88;78.75;98086.69;5050233;28;20048;-69
2021/09/17 06:35:13;;;;;;;1.92;1.60;;;;;;;13.88;79.00;98074.84;5051554;28;20057;-70
2021/09/17 06:37:50;;;;;;;3.20;2.70;;;;;;;13.92;79.14;98084.09;5051442;28;20035;-70
2021/09/17 06:40:16;;;;;;;2.70;2.50;;;;;;;13.93;78.80;98080.19;5051093;28;20145;-69
2021/09/17 06:42:42;;;;;;;3.50;3.20;;;;;;;13.94;78.82;98079.06;5050450;28;20496;-70
2021/09/17 06:45:08;;;;;;;2.88;2.60;;;;;;;13.94;78.95;98079.88;5050962;28;20068;-70
2021/09/17 06:47:45;;;;;;;4.80;4.40;;;;;;;13.95;78.91;98081.50;5048706;28;20535;-70
2021/09/17 06:50:11;;;;;;;8.02;7.32;;;;;;;14.01;79.12;98081.31;5049758;28;20025;-70
2021/09/17 06:52:36;;;;;;;3.60;3.28;;;;;;;14.04;78.69;98084.22;5051172;28;20040;-69
2021/09/17 06:55:02;;;;;;;3.50;2.63;;;;;;;14.10;78.93;98079.34;5051570;28;20024;-70
2021/09/17 06:57:27;;;;;;;2.65;2.45;;;;;;;14.16;79.05;98080.78;5051437;28;20033;-69
2021/09/17 06:59:53;;;;;;;2.58;2.30;;;;;;;14.18;78.60;98080.47;5051759;28;20025;-69
2021/09/17 07:02:18;;;;;;;2.90;2.55;;;;;;;14.26;78.83;98082.38;5050686;28;20021;-68
2021/09/17 07:04:45;;;;;;;3.10;2.53;;;;;;;14.33;78.87;98079.09;5051546;28;20487;-68
2021/09/17 07:07:10;;;;;;;4.13;1.70;;;;;;;14.43;78.71;98073.22;5042331;28;20025;-68
2021/09/17 07:09:36;;;;;;;2.90;1.90;;;;;;;14.50;78.61;98073.50;5049084;28;20057;-69
2021/09/17 07:12:01;;;;;;;1.92;1.55;;;;;;;14.49;78.44;98076.59;5049507;28;20037;-69
2021/09/17 07:14:26;;;;;;;2.10;1.40;;;;;;;14.52;78.43;98071.22;5049679;28;20112;-71
2021/09/17 07:16:52;;;;;;;1.58;1.40;;;;;;;14.52;78.25;98070.44;5050270;28;20088;-70
2021/09/17 07:19:18;;;;;;;1.50;1.40;;;;;;;14.53;78.48;98072.84;5049568;28;20065;-71
2021/09/17 07:21:43;;;;;;;2.13;1.60;;;;;;;14.58;78.45;98069.91;5048635;28;20033;-71
2021/09/17 07:24:09;;;;;;;1.70;1.60;;;;;;;14.67;78.44;98072.59;5048679;28;20051;-71
2021/09/17 07:26:34;;;;;;;2.00;1.60;;;;;;;14.71;78.37;98075.56;5047554;28;20072;-71
2021/09/17 07:29:00;;;;;;;2.08;1.88;;;;;;;14.71;77.94;98070.81;5048979;28;20119;-71
2021/09/17 07:31:25;;;;;;;2.53;2.33;;;;;;;14.74;77.74;98080.41;5050136;28;20047;-71
2021/09/17 07:33:51;;;;;;;2.85;1.95;;;;;;;14.77;78.23;98082.50;5049530;28;20465;-72
2021/09/17 07:36:16;;;;;;;4.20;2.30;;;;;;;14.87;77.55;98078.53;5049878;28;20040;-71
2021/09/17 07:38:42;;;;;;;5.10;2.38;;;;;;;14.93;78.01;98084.66;5049068;28;20025;-70
2021/09/17 07:41:07;;;;;;;4.88;2.50;;;;;;;14.99;78.38;98092.44;5049070;28;20473;-71
2021/09/17 07:43:32;;;;;;;3.83;2.17;;;;;;;15.09;78.37;98084.88;5048369;28;20029;-70
2021/09/17 07:45:58;;;;;;;4.78;3.67;;;;;;;15.01;77.86;98092.91;5052469;28;20488;-70
2021/09/17 07:48:23;;;;;;;6.45;3.80;;;;;;;15.01;77.42;98086.56;5052948;28;20028;-69
2021/09/17 07:50:49;;;;;;;8.40;5.65;;;;;;;14.98;77.69;98090.81;5053157;28;20044;-68
2021/09/17 07:53:14;;;;;;;6.82;5.80;;;;;;;14.96;77.65;98095.88;5052011;28;20032;-68
2021/09/17 07:55:40;;;;;;;10.25;7.43;;;;;;;14.98;78.14;98101.03;5053902;28;20021;-69
2021/09/17 07:58:06;;;;;;;13.05;8.80;;;;;;;14.96;77.67;98098.63;5052572;28;20021;-68
2021/09/17 08:00:31;;;;;;;18.80;9.32;;;;;;;14.94;77.82;98098.16;5052569;28;20052;-68
2021/09/17 08:02:57;;;;;;;23.85;12.23;;;;;;;14.94;77.50;98097.34;5052219;28;20086;-68
2021/09/17 08:05:22;;;;;;;19.23;13.10;;;;;;;14.93;77.63;98093.78;5051180;28;20124;-67
2021/09/17 08:07:47;;;;;;;17.02;12.80;;;;;;;14.91;77.98;98095.25;5052182;28;20084;-68
2021/09/17 08:10:13;;;;;;;26.77;14.88;;;;;;;14.93;78.02;98090.19;5052926;28;20025;-68
2021/09/17 08:12:38;;;;;;;21.23;13.27;;;;;;;14.92;77.95;98096.84;5051178;28;20470;-68
2021/09/17 08:15:05;;;;;;;19.08;13.05;;;;;;;14.88;77.62;98097.53;5052142;28;20045;-70
2021/09/17 08:17:30;;;;;;;26.27;15.65;;;;;;;14.87;77.94;98095.09;5050639;28;20025;-74
2021/09/17 08:19:56;;;;;;;34.30;16.73;;;;;;;14.85;78.06;98103.75;5049821;28;20029;-71
2021/09/17 08:22:21;;;;;;;27.98;17.65;;;;;;;14.91;78.02;98098.00;5050625;28;20017;-77
2021/09/17 08:24:46;;;;;;;26.58;16.85;;;;;;;14.96;78.49;98112.44;5050123;28;20350;-72
2021/09/17 08:27:12;;;;;;;32.00;19.23;;;;;;;15.01;78.61;98109.50;5051294;28;20028;-73
2021/09/17 08:29:37;;;;;;;35.83;23.10;;;;;;;15.02;78.25;98105.59;5051233;28;20021;-74
2021/09/17 08:32:03;;;;;;;37.63;20.35;;;;;;;15.03;78.00;98107.19;5052061;28;20029;-70
2021/09/17 08:34:28;;;;;;;35.28;19.90;;;;;;;15.05;77.97;98100.53;5052152;28;20503;-70
2021/09/17 08:36:54;;;;;;;27.65;17.05;;;;;;;15.00;78.07;98096.81;5052613;28;20021;-74
2021/09/17 08:39:20;;;;;;;30.67;19.05;;;;;;;15.00;77.96;98107.03;5051014;28;20059;-71
2021/09/17 08:41:46;;;;;;;25.52;15.07;;;;;;;15.04;78.11;98105.22;5051514;28;20025;-71
2021/09/17 08:44:12;;;;;;;29.42;19.45;;;;;;;15.10;78.09;98111.38;5051288;28;20392;-71
2021/09/17 08:46:42;;;;;;;32.22;19.00;;;;;;;15.09;77.84;98106.97;5053678;28;20602;-71
2021/09/17 08:49:11;;;;;;;27.70;18.13;;;;;;;15.10;78.17;98103.91;5052412;28;20104;-70
2021/09/17 08:51:37;;;;;;;26.35;16.92;;;;;;;15.17;78.04;98114.41;5053308;28;20056;-71
2021/09/17 08:54:04;;;;;;;22.58;17.00;;;;;;;15.16;78.17;98116.38;5052022;28;20103;-69
2021/09/17 08:56:31;;;;;;;22.88;14.95;;;;;;;15.15;78.23;98108.41;5051143;28;20112;-69
2021/09/17 08:58:56;;;;;;;22.13;14.93;;;;;;;15.15;77.99;98105.66;5051080;28;20032;-67
2021/09/17 09:01:25;;;;;;;22.20;15.40;;;;;;;15.17;77.76;98100.59;5051744;28;20424;-70
2021/09/17 09:03:51;;;;;;;24.35;16.02;;;;;;;15.23;77.72;98102.03;5050085;28;20021;-73
2021/09/17 09:06:16;;;;;;;25.50;16.20;;;;;;;15.27;77.98;98100.22;5051894;28;20056;-73
2021/09/17 09:08:43;;;;;;;20.58;14.57;;;;;;;15.31;77.77;98100.31;5051581;28;20060;-71
2021/09/17 09:11:15;;;;;;;16.30;12.77;;;;;;;15.37;78.13;98104.50;5050039;28;20060;-72
2021/09/17 09:13:57;;;;;;;22.50;15.75;;;;;;;15.38;77.46;98102.56;5049713;28;20029;-72
2021/09/17 09:16:22;;;;;;;15.95;11.35;;;;;;;15.37;77.85;98103.72;5050360;28;20524;-72
2021/09/17 09:18:48;;;;;;;17.65;12.75;;;;;;;15.38;78.10;98099.81;5049815;28;20109;-71
2021/09/17 09:21:31;;;;;;;21.80;15.27;;;;;;;15.39;78.12;98096.69;5049587;28;20129;-72
2021/09/17 09:24:08;;;;;;;24.23;17.98;;;;;;;15.49;78.12;98103.75;5048506;28;20128;-71
2021/09/17 09:26:33;;;;;;;17.70;13.38;;;;;;;15.53;78.06;98104.72;5049997;28;20086;-72
2021/09/17 09:28:58;;;;;;;15.40;12.38;;;;;;;15.58;77.63;98100.94;5051149;28;20025;-72
2021/09/17 09:31:24;;;;;;;43.10;19.70;;;;;;;15.62;77.53;98093.59;5052186;28;20428;-72
2021/09/17 09:33:50;;;;;;;32.20;18.75;;;;;;;15.66;77.66;98097.31;5051024;28;20035;-71
2021/09/17 09:36:17;;;;;;;22.00;14.35;;;;;;;15.72;77.83;98095.91;5050093;28;20079;-72
2021/09/17 09:38:47;;;;;;;28.65;16.15;;;;;;;15.72;77.17;98095.13;5043211;28;20024;-73
2021/09/17 09:41:23;;;;;;;;;;;;;;;15.72;77.21;98095.91;5050599;28;20060;-78
2021/09/17 09:44:04;;;;;;;23.80;15.18;;;;;;;15.77;77.71;98087.41;5050054;28;20008;-80
2021/09/17 09:46:38;;;;;;;20.17;14.00;;;;;;;15.87;77.66;98097.31;5050241;28;20071;-82
2021/09/17 09:49:41;;;;;;;26.67;16.30;;;;;;;15.85;76.95;98094.03;5051702;28;20033;-83
2021/09/17 09:52:07;;;;;;;22.63;15.23;;;;;;;15.88;77.27;98087.03;5040643;28;20132;-80
2021/09/17 09:54:34;;;;;;;20.00;16.00;;;;;;;15.93;77.04;98089.59;5051010;28;20132;-79
2021/09/17 09:57:02;;;;;;;24.58;17.17;;;;;;;16.02;77.35;98079.25;5051346;28;20025;-80
2021/09/17 09:59:30;;;;;;;22.33;15.70;;;;;;;16.09;76.90;98083.41;5051009;28;20114;-78
2021/09/17 10:02:01;;;;;;;22.88;18.55;;;;;;;16.17;77.00;98090.78;5051847;28;20104;-71
2021/09/17 10:04:28;;;;;;;27.63;21.33;;;;;;;16.20;76.97;98093.69;5050340;28;20389;-70
2021/09/17 10:07:03;;;;;;;20.75;16.25;;;;;;;16.22;76.37;98087.81;5049635;28;20021;-72
2021/09/17 10:09:29;;;;;;;22.50;16.52;;;;;;;16.22;76.52;98090.56;5049418;28;20032;-71
2021/09/17 10:11:55;;;;;;;17.88;14.50;;;;;;;16.21;76.51;98083.44;5048104;28;20033;-72
2021/09/17 10:14:21;;;;;;;24.38;17.58;;;;;;;16.24;76.65;98079.19;5048372;28;20029;-71
2021/09/17 10:16:48;;;;;;;22.40;15.70;;;;;;;16.31;76.27;98079.41;5049803;28;20024;-70
2021/09/17 10:19:18;;;;;;;20.13;15.80;;;;;;;16.34;75.96;98076.78;5049477;28;20029;-70
2021/09/17 10:21:43;;;;;;;23.98;15.80;;;;;;;16.40;76.25;98076.53;5050631;28;20385;-70
2021/09/17 10:24:27;;;;;;;18.63;15.32;;;;;;;16.45;75.54;98079.88;5048727;28;20052;-70
2021/09/17 10:27:02;;;;;;;21.08;15.77;;;;;;;16.41;75.36;98065.13;5049618;28;20036;-69
2021/09/17 10:29:55;;;;;;;22.23;16.88;;;;;;;16.46;75.34;98075.97;5049837;28;20037;-70
2021/09/17 10:32:26;;;;;;;20.52;16.27;;;;;;;16.52;75.57;98062.69;5050359;28;20031;-70
2021/09/17 10:35:12;;;;;;;21.70;16.55;;;;;;;16.59;75.85;98065.69;5050104;28;21266;-70
2021/09/17 10:37:58;;;;;;;22.38;17.23;;;;;;;16.62;75.38;98059.47;5048743;28;20037;-68
2021/09/17 10:40:38;;;;;;;24.30;17.60;;;;;;;16.63;75.18;98049.22;5050435;28;20029;-67
2021/09/17 10:43:09;;;;;;;20.35;16.38;;;;;;;16.67;75.06;98056.47;5049416;28;20024;-68
2021/09/17 10:45:41;;;;;;;22.52;16.35;;;;;;;16.73;75.00;98057.03;5047591;28;20043;-68
2021/09/17 10:48:08;;;;;;;27.67;20.38;;;;;;;16.74;74.76;98058.66;5048329;28;20251;-67
2021/09/17 10:51:10;;;;;;;20.70;16.30;;;;;;;16.78;74.70;98054.03;5047118;28;20030;-68
2021/09/17 10:53:41;;;;;;;20.35;16.02;;;;;;;16.84;74.62;98046.31;5048314;28;20065;-68
2021/09/17 10:56:13;;;;;;;22.23;15.45;;;;;;;16.83;74.32;98044.72;5046418;28;20138;-67
2021/09/17 10:58:46;;;;;;;20.10;16.33;;;;;;;16.88;74.41;98046.41;5048824;28;20040;-67
2021/09/17 11:01:13;;;;;;;13.30;11.40;;;;;;;16.90;74.29;98044.09;5048508;28;20056;-67
2021/09/17 11:03:39;;;;;;;19.00;14.25;;;;;;;16.85;73.93;98036.84;5048355;28;20080;-67
2021/09/17 11:06:26;;;;;;;18.40;14.32;;;;;;;16.85;74.14;98042.41;5048770;28;20507;-67
2021/09/17 11:09:03;;;;;;;17.65;13.13;;;;;;;16.83;73.94;98050.25;5049494;28;20452;-66
2021/09/17 11:11:41;;;;;;;18.30;12.75;;;;;;;16.82;74.27;98046.66;5048882;28;20025;-68
2021/09/17 11:14:19;;;;;;;13.48;11.27;;;;;;;16.78;73.21;98058.78;5048879;28;20033;-67
2021/09/17 11:16:52;;;;;;;13.45;10.30;;;;;;;16.70;73.42;98051.41;5049769;28;20477;-67
2021/09/17 11:19:19;;;;;;;11.90;9.80;;;;;;;16.67;73.61;98053.72;5049924;28;20048;-67
2021/09/17 11:21:47;;;;;;;13.63;10.55;;;;;;;16.69;73.83;98045.06;5050077;28;20024;-66
2021/09/17 11:24:16;;;;;;;12.13;9.07;;;;;;;16.72;73.98;98044.34;5048233;28;20094;-67
2021/09/17 11:26:44;;;;;;;9.63;8.13;;;;;;;16.71;73.66;98047.47;5049073;28;20478;-67